Time;durP1;ratioP1;P1;durP2;ratioP2;P2;SDS_P1;SDS_P2;PMS_P1;PMS_P2;Temp;Humidity;BMP_temperature;BMP_pressure;BME280_temperature;BME280_humidity;BME280_pressure;Samples;Min_cycle;Max_cycle;Signal;HPM_P1;HPM_P2
2022/12/09 00:00:30;;;;;;;15.38;12.07;;;3.50;99.90;;;;;;5044388;28;20535;-74
2022/12/09 00:02:55;;;;;;;15.30;12.52;;;3.50;99.90;;;;;;5059974;28;20076;-74
2022/12/09 00:05:21;;;;;;;15.57;12.55;;;3.50;99.90;;;;;;5055265;28;20048;-74
2022/12/09 00:07:46;;;;;;;14.48;10.85;;;3.50;99.90;;;;;;5054899;28;20044;-74
2022/12/09 00:10:12;;;;;;;12.82;11.32;;;3.40;99.90;;;;;;5055574;28;20050;-74
2022/12/09 00:12:38;;;;;;;15.27;11.52;;;3.50;99.90;;;;;;5066533;28;20089;-74
2022/12/09 00:15:03;;;;;;;14.77;11.73;;;3.40;99.90;;;;;;5060855;28;20041;-74
2022/12/09 00:17:29;;;;;;;17.25;12.82;;;3.50;99.90;;;;;;5058779;28;20041;-74
2022/12/09 00:19:55;;;;;;;14.60;12.45;;;3.40;99.90;;;;;;5070124;28;20131;-74
2022/12/09 00:22:20;;;;;;;15.63;12.57;;;3.40;99.90;;;;;;5058295;28;20047;-74
2022/12/09 00:24:46;;;;;;;16.85;13.75;;;3.40;99.90;;;;;;5071232;28;20068;-74
2022/12/09 00:27:12;;;;;;;16.73;12.82;;;3.40;99.90;;;;;;5049427;28;20040;-73
2022/12/09 00:29:37;;;;;;;18.63;13.63;;;3.40;99.90;;;;;;5057049;28;20086;-75
2022/12/09 00:32:03;;;;;;;17.13;13.10;;;3.40;99.90;;;;;;5054754;28;20048;-73
2022/12/09 00:34:29;;;;;;;17.17;13.98;;;3.40;99.90;;;;;;5073248;28;20407;-74
2022/12/09 00:36:55;;;;;;;16.05;13.68;;;3.40;99.90;;;;;;5052598;28;20084;-73
2022/12/09 00:39:20;;;;;;;15.52;13.25;;;3.40;99.90;;;;;;5058613;28;20041;-74
2022/12/09 00:41:47;;;;;;;21.63;14.55;;;3.40;99.90;;;;;;5079575;28;20467;-74
2022/12/09 00:44:13;;;;;;;19.45;14.15;;;3.40;99.90;;;;;;5054786;28;20048;-74
2022/12/09 00:46:38;;;;;;;18.08;14.20;;;3.40;99.90;;;;;;5064737;28;20407;-74
2022/12/09 00:49:04;;;;;;;17.48;13.90;;;3.40;99.90;;;;;;5056504;28;20167;-74
2022/12/09 00:51:30;;;;;;;18.45;14.15;;;3.40;99.90;;;;;;5059813;28;20055;-74
2022/12/09 00:53:55;;;;;;;18.92;13.82;;;3.40;99.90;;;;;;5054807;28;20049;-73
2022/12/09 00:56:23;;;;;;;16.30;13.63;;;3.40;99.90;;;;;;5061868;28;20055;-73
2022/12/09 00:58:48;;;;;;;19.58;14.75;;;3.40;99.90;;;;;;5064961;28;20056;-74
2022/12/09 01:01:14;;;;;;;18.13;14.65;;;3.40;99.90;;;;;;5060037;28;20049;-74
2022/12/09 01:03:40;;;;;;;17.73;14.32;;;3.40;99.90;;;;;;5094449;27;20032;-74
2022/12/09 01:06:15;;;;;;;16.15;13.65;;;3.40;99.90;;;;;;5054146;28;20044;-73
2022/12/09 01:08:41;;;;;;;15.95;14.20;;;3.40;99.90;;;;;;5065237;28;20487;-74
2022/12/09 01:11:11;;;;;;;15.80;13.18;;;3.30;99.90;;;;;;5058328;28;20048;-74
2022/12/09 01:13:37;;;;;;;21.05;14.52;;;3.30;99.90;;;;;;5092047;28;20040;-74
2022/12/09 01:16:03;;;;;;;19.20;13.95;;;3.40;99.90;;;;;;5058224;28;20056;-74
2022/12/09 01:18:29;;;;;;;18.08;14.07;;;3.40;99.90;;;;;;5062132;28;20036;-74
2022/12/09 01:20:58;;;;;;;18.25;13.77;;;3.40;99.90;;;;;;5053768;28;21011;-74
2022/12/09 01:23:24;;;;;;;17.55;14.32;;;3.40;99.90;;;;;;5062749;28;20064;-74
2022/12/09 01:25:50;;;;;;;19.88;14.20;;;3.40;99.90;;;;;;5056238;28;20072;-74
2022/12/09 01:28:15;;;;;;;21.73;14.48;;;3.30;99.90;;;;;;5052084;28;20080;-74
2022/12/09 01:30:41;;;;;;;20.05;15.35;;;3.30;99.90;;;;;;5073657;28;20041;-74
2022/12/09 01:33:07;;;;;;;18.75;14.27;;;3.30;99.90;;;;;;5056805;28;20029;-74
2022/12/09 01:35:32;;;;;;;18.45;14.40;;;3.40;99.90;;;;;;5052377;28;20483;-74
2022/12/09 01:37:58;;;;;;;18.67;13.98;;;3.40;99.90;;;;;;5059732;28;20100;-74
2022/12/09 01:40:23;;;;;;;17.88;14.25;;;3.40;99.90;;;;;;5060532;28;20048;-74
2022/12/09 01:42:50;;;;;;;17.02;13.80;;;3.40;99.90;;;;;;5064513;28;20040;-74
2022/12/09 01:45:22;;;;;;;19.27;15.18;;;3.40;99.90;;;;;;5055188;28;20432;-74
2022/12/09 01:48:12;;;;;;;18.40;14.27;;;3.40;99.90;;;;;;5068137;28;20048;-74
2022/12/09 01:50:44;;;;;;;20.10;14.73;;;3.40;99.90;;;;;;5058052;28;20057;-74
2022/12/09 01:53:12;;;;;;;19.27;14.63;;;3.30;99.90;;;;;;5070686;28;20045;-74
2022/12/09 01:55:38;;;;;;;20.80;14.80;;;3.40;99.90;;;;;;5081023;28;20146;-74
2022/12/09 01:58:04;;;;;;;20.42;15.15;;;3.30;99.90;;;;;;5068093;28;20056;-74
2022/12/09 02:00:30;;;;;;;21.23;16.50;;;3.30;99.90;;;;;;5078177;28;20040;-74
2022/12/09 02:02:56;;;;;;;18.92;16.23;;;3.30;99.90;;;;;;5065565;28;20032;-74
2022/12/09 02:05:25;;;;;;;21.77;16.38;;;3.40;99.90;;;;;;5068517;28;20032;-74
2022/12/09 02:07:51;;;;;;;21.70;17.50;;;3.40;99.90;;;;;;5066106;28;20044;-74
2022/12/09 02:10:17;;;;;;;21.92;17.80;;;3.40;99.90;;;;;;5065515;28;20109;-74
2022/12/09 02:12:52;;;;;;;24.60;17.58;;;3.40;99.90;;;;;;5068148;28;20459;-74
2022/12/09 02:15:22;;;;;;;23.63;18.15;;;3.40;99.90;;;;;;5062961;28;20247;-74
2022/12/09 02:18:02;;;;;;;20.58;17.30;;;3.40;99.90;;;;;;5072332;28;20093;-74
2022/12/09 02:20:40;;;;;;;21.08;18.00;;;3.50;99.90;;;;;;5049854;28;20057;-74
2022/12/09 02:23:30;;;;;;;20.45;16.73;;;3.50;99.90;;;;;;5050526;28;20041;-74
2022/12/09 02:26:24;;;;;;;22.60;17.08;;;3.50;99.90;;;;;;5056691;28;20077;-74
2022/12/09 02:29:02;;;;;;;21.60;17.13;;;3.40;99.90;;;;;;5063911;28;20099;-74
2022/12/09 02:31:58;;;;;;;20.52;16.58;;;3.40;99.90;;;;;;5065450;28;20056;-74
2022/12/09 02:34:30;;;;;;;21.60;17.05;;;3.40;99.90;;;;;;5079213;28;20139;-73
2022/12/09 02:37:17;;;;;;;23.15;17.35;;;3.40;99.90;;;;;;5066804;28;20076;-74
2022/12/09 02:39:50;;;;;;;20.20;16.33;;;3.40;99.90;;;;;;5067223;28;20516;-74
2022/12/09 02:42:20;;;;;;;20.92;17.17;;;3.40;99.90;;;;;;5068376;28;20041;-74
2022/12/09 02:44:48;;;;;;;22.92;17.55;;;3.40;99.90;;;;;;5048328;28;20036;-74
2022/12/09 02:47:17;;;;;;;20.27;16.48;;;3.30;99.90;;;;;;5067633;28;20529;-74
2022/12/09 02:49:45;;;;;;;20.65;16.17;;;3.30;99.90;;;;;;5065035;28;20060;-74
2022/12/09 02:52:12;;;;;;;22.23;16.75;;;3.20;99.90;;;;;;5052402;28;20143;-74
2022/12/09 02:54:39;;;;;;;22.98;17.65;;;3.20;99.90;;;;;;5062897;28;20082;-74
2022/12/09 02:57:14;;;;;;;23.30;17.13;;;3.20;99.90;;;;;;5067241;28;20063;-74
2022/12/09 02:59:40;;;;;;;21.50;16.15;;;3.10;99.90;;;;;;5050184;28;20106;-74
2022/12/09 03:02:19;;;;;;;26.00;16.88;;;3.10;99.90;;;;;;5081915;28;20041;-74
2022/12/09 03:05:07;;;;;;;21.35;16.75;;;3.10;99.90;;;;;;5057984;28;20071;-74
2022/12/09 03:07:46;;;;;;;20.05;16.42;;;3.10;99.90;;;;;;5067762;28;20075;-73
2022/12/09 03:10:24;;;;;;;21.55;17.13;;;3.00;99.90;;;;;;5053778;28;20380;-73
2022/12/09 03:13:04;;;;;;;21.50;17.42;;;3.00;99.90;;;;;;5051843;28;20141;-74
2022/12/09 03:15:34;;;;;;;21.67;16.50;;;3.00;99.90;;;;;;5061212;28;20135;-74
2022/12/09 03:18:04;;;;;;;20.00;15.85;;;2.90;99.90;;;;;;5057992;28;20151;-74
2022/12/09 03:20:35;;;;;;;23.85;16.85;;;2.80;99.90;;;;;;5058892;28;20164;-74
2022/12/09 03:23:04;;;;;;;22.58;16.40;;;2.80;99.90;;;;;;5058783;28;20043;-73
2022/12/09 03:25:39;;;;;;;21.40;15.68;;;2.70;99.90;;;;;;5052013;28;20041;-73
2022/12/09 03:28:09;;;;;;;22.95;17.38;;;2.70;99.90;;;;;;5058552;28;20056;-73
2022/12/09 03:30:38;;;;;;;27.85;17.58;;;2.60;99.90;;;;;;5089953;28;20045;-72
2022/12/09 03:33:04;;;;;;;21.75;16.20;;;2.60;99.90;;;;;;5051227;28;20106;-71
2022/12/09 03:35:35;;;;;;;20.10;16.73;;;2.60;99.90;;;;;;5058761;28;20498;-72
2022/12/09 03:38:04;;;;;;;21.63;16.50;;;2.60;99.90;;;;;;5052069;28;20067;-71
2022/12/09 03:40:31;;;;;;;19.73;15.77;;;2.60;99.90;;;;;;5052111;28;20044;-72
2022/12/09 03:43:12;;;;;;;22.90;16.52;;;2.50;99.90;;;;;;5085416;27;20045;-72
2022/12/09 03:45:39;;;;;;;20.05;15.43;;;2.50;99.90;;;;;;5084887;27;20045;-72
2022/12/09 03:48:05;;;;;;;21.15;16.40;;;2.50;99.90;;;;;;5058329;28;20040;-72
2022/12/09 03:50:43;;;;;;;22.95;17.52;;;2.50;99.90;;;;;;5075823;28;20041;-72
2022/12/09 03:53:14;;;;;;;23.05;16.05;;;2.50;99.90;;;;;;5050126;28;20055;-71
2022/12/09 03:56:09;;;;;;;22.85;17.48;;;2.50;99.90;;;;;;5084778;28;20067;-71
2022/12/09 03:58:39;;;;;;;19.70;15.32;;;2.50;99.90;;;;;;5051132;28;20115;-72
2022/12/09 04:01:06;;;;;;;21.00;16.40;;;2.50;99.90;;;;;;5049960;28;20048;-72
2022/12/09 04:03:32;;;;;;;23.45;17.10;;;2.40;99.90;;;;;;5059313;28;20074;-72
2022/12/09 04:05:57;;;;;;;20.98;15.70;;;2.40;99.90;;;;;;5062446;28;20045;-72
2022/12/09 04:08:23;;;;;;;21.98;15.90;;;2.40;99.90;;;;;;5063020;28;20484;-72
2022/12/09 04:10:49;;;;;;;24.00;16.83;;;2.40;99.90;;;;;;5062568;28;20137;-71
2022/12/09 04:13:14;;;;;;;23.73;17.02;;;2.40;99.90;;;;;;5051903;28;20041;-72
2022/12/09 04:15:40;;;;;;;20.75;15.60;;;2.40;99.90;;;;;;5046878;28;20095;-72
2022/12/09 04:18:06;;;;;;;21.23;16.45;;;2.30;99.90;;;;;;5073879;28;20051;-71
2022/12/09 04:20:31;;;;;;;22.40;16.50;;;2.40;99.90;;;;;;5053779;28;20044;-72
2022/12/09 04:22:57;;;;;;;21.13;16.77;;;2.40;99.90;;;;;;5059278;28;20040;-72
2022/12/09 04:25:22;;;;;;;20.88;15.55;;;2.40;99.90;;;;;;5065712;28;20446;-72
2022/12/09 04:27:48;;;;;;;22.60;15.43;;;2.40;99.90;;;;;;5056631;28;20134;-72
2022/12/09 04:30:14;;;;;;;21.17;16.42;;;2.40;99.90;;;;;;5056583;28;20044;-71
2022/12/09 04:32:39;;;;;;;23.70;16.75;;;2.40;99.90;;;;;;5081040;28;20575;-72
2022/12/09 04:35:05;;;;;;;22.85;17.33;;;2.40;99.90;;;;;;5055105;28;20421;-72
2022/12/09 04:37:31;;;;;;;23.13;16.95;;;2.40;99.90;;;;;;5051566;28;20033;-72
2022/12/09 04:39:57;;;;;;;23.95;17.83;;;2.30;99.90;;;;;;5053026;28;20372;-72
2022/12/09 04:42:23;;;;;;;25.63;18.13;;;2.40;99.90;;;;;;5051347;28;20036;-71
2022/12/09 04:44:48;;;;;;;23.58;17.92;;;2.40;99.90;;;;;;5050121;28;20049;-72
2022/12/09 04:47:14;;;;;;;24.25;18.17;;;2.40;99.90;;;;;;5061727;28;20048;-72
2022/12/09 04:49:39;;;;;;;25.33;19.35;;;2.40;99.90;;;;;;5046897;28;20491;-72
2022/12/09 04:52:05;;;;;;;23.35;18.45;;;2.40;99.90;;;;;;5057728;28;20053;-72
2022/12/09 04:54:32;;;;;;;25.02;18.70;;;2.40;99.90;;;;;;5057135;28;20499;-72
2022/12/09 04:56:58;;;;;;;28.23;18.90;;;2.50;99.90;;;;;;5053307;28;22148;-72
2022/12/09 04:59:23;;;;;;;24.52;19.42;;;2.50;99.90;;;;;;5093093;28;20055;-72
2022/12/09 05:01:49;;;;;;;25.25;19.80;;;2.50;99.90;;;;;;5049804;28;20052;-72
2022/12/09 05:04:14;;;;;;;26.45;20.20;;;2.50;99.90;;;;;;5051373;28;20045;-71
2022/12/09 05:06:40;;;;;;;27.52;19.55;;;2.50;99.90;;;;;;5055202;28;20044;-72
2022/12/09 05:09:10;;;;;;;28.42;21.48;;;2.60;99.90;;;;;;5060579;28;20040;-72
2022/12/09 05:11:35;;;;;;;27.25;20.90;;;2.60;99.90;;;;;;5062292;28;20127;-72
2022/12/09 05:14:01;;;;;;;28.17;20.77;;;2.60;99.90;;;;;;5056658;28;20128;-72
2022/12/09 05:16:27;;;;;;;25.85;20.40;;;2.70;99.90;;;;;;5051749;28;20040;-72
2022/12/09 05:18:52;;;;;;;27.25;21.70;;;2.70;99.90;;;;;;5064124;28;20373;-72
2022/12/09 05:21:19;;;;;;;27.65;21.75;;;2.70;99.90;;;;;;5064258;28;20068;-72
2022/12/09 05:23:45;;;;;;;28.83;21.95;;;2.70;99.90;;;;;;5050532;28;20089;-72
2022/12/09 05:26:14;;;;;;;27.98;21.73;;;2.70;99.90;;;;;;5056023;28;20044;-71
2022/12/09 05:28:40;;;;;;;28.42;22.15;;;2.70;99.90;;;;;;5089422;28;20051;-72
2022/12/09 05:31:13;;;;;;;31.90;22.38;;;2.80;99.90;;;;;;5071051;28;20488;-73
2022/12/09 05:33:39;;;;;;;30.48;23.02;;;2.80;99.90;;;;;;5049831;28;20068;-72
2022/12/09 05:36:11;;;;;;;30.08;22.85;;;2.80;99.90;;;;;;5063906;28;20060;-72
2022/12/09 05:38:38;;;;;;;35.72;24.85;;;2.80;99.90;;;;;;5077729;28;20513;-72
2022/12/09 05:41:04;;;;;;;35.10;25.92;;;2.80;99.90;;;;;;5064942;28;20444;-71
2022/12/09 05:43:30;;;;;;;33.10;25.17;;;2.80;99.90;;;;;;5050441;28;20460;-72
2022/12/09 05:45:56;;;;;;;35.28;26.38;;;2.80;99.90;;;;;;5051922;28;20096;-71
2022/12/09 05:48:22;;;;;;;36.20;26.13;;;2.80;99.90;;;;;;5059388;28;20053;-72
2022/12/09 05:50:58;;;;;;;40.08;26.65;;;2.80;99.90;;;;;;5063595;28;20101;-71
2022/12/09 05:53:25;;;;;;;37.17;26.13;;;2.80;99.90;;;;;;5058517;28;20040;-72
2022/12/09 05:55:50;;;;;;;37.42;27.13;;;2.70;99.90;;;;;;5056869;28;20099;-72
2022/12/09 05:58:16;;;;;;;32.05;24.73;;;2.70;99.90;;;;;;5050053;28;20897;-72
2022/12/09 06:00:42;;;;;;;32.83;24.40;;;2.70;99.90;;;;;;5057264;28;20147;-72
2022/12/09 06:03:07;;;;;;;35.20;26.05;;;2.70;99.90;;;;;;5055319;28;20032;-72
2022/12/09 06:05:33;;;;;;;35.28;25.58;;;2.60;99.90;;;;;;5052224;28;20045;-72
2022/12/09 06:07:59;;;;;;;32.47;23.83;;;2.60;99.90;;;;;;5060992;28;20048;-73
2022/12/09 06:10:24;;;;;;;32.03;23.65;;;2.50;99.90;;;;;;5056095;28;20072;-73
2022/12/09 06:12:53;;;;;;;31.73;24.02;;;2.50;99.90;;;;;;5055995;28;20051;-73
2022/12/09 06:15:20;;;;;;;30.60;22.83;;;2.40;99.90;;;;;;5062539;28;20402;-74
2022/12/09 06:17:45;;;;;;;29.83;23.05;;;2.40;99.90;;;;;;5058356;28;20368;-74
2022/12/09 06:20:11;;;;;;;29.33;22.88;;;2.40;99.90;;;;;;5058216;28;20169;-74
2022/12/09 06:22:37;;;;;;;29.10;21.77;;;2.30;99.90;;;;;;5055927;28;20076;-73
2022/12/09 06:25:03;;;;;;;29.80;21.80;;;2.40;99.90;;;;;;5051534;28;20147;-73
2022/12/09 06:27:29;;;;;;;33.53;23.17;;;2.30;99.90;;;;;;5066840;28;20044;-74
2022/12/09 06:29:54;;;;;;;31.33;22.95;;;2.30;99.90;;;;;;5075961;28;20490;-73
2022/12/09 06:32:20;;;;;;;32.35;23.95;;;2.30;99.90;;;;;;5065595;28;20037;-74
2022/12/09 06:34:46;;;;;;;31.27;24.23;;;2.30;99.90;;;;;;5063001;28;20114;-74
2022/12/09 06:37:13;;;;;;;30.95;23.48;;;2.30;99.90;;;;;;5054529;28;20112;-74
2022/12/09 06:39:39;;;;;;;29.52;22.40;;;2.30;99.90;;;;;;5058747;28;20077;-73
2022/12/09 06:42:04;;;;;;;33.08;23.30;;;2.20;99.90;;;;;;5064520;28;21152;-74
2022/12/09 06:44:30;;;;;;;30.65;23.17;;;2.20;99.90;;;;;;5052071;28;20385;-73
2022/12/09 06:46:56;;;;;;;32.60;24.70;;;2.10;99.90;;;;;;5059934;28;20065;-73
2022/12/09 06:49:21;;;;;;;33.85;23.45;;;2.10;99.90;;;;;;5055361;28;20044;-74
2022/12/09 06:51:47;;;;;;;30.70;23.17;;;2.10;99.90;;;;;;5060608;28;20131;-73
2022/12/09 06:54:13;;;;;;;31.77;23.63;;;2.00;99.90;;;;;;5056864;28;20105;-72
2022/12/09 06:56:38;;;;;;;33.55;24.10;;;1.90;99.90;;;;;;5064026;28;20037;-75
2022/12/09 06:59:09;;;;;;;30.25;21.95;;;1.90;99.90;;;;;;5069049;28;20106;-74
2022/12/09 07:01:35;;;;;;;29.80;22.55;;;1.80;99.90;;;;;;5092247;28;20049;-73
2022/12/09 07:04:03;;;;;;;31.35;23.58;;;1.80;99.90;;;;;;5052375;28;20090;-73
2022/12/09 07:06:40;;;;;;;32.10;23.92;;;1.70;99.90;;;;;;5066316;28;20078;-73
2022/12/09 07:09:12;;;;;;;31.90;23.30;;;1.60;99.90;;;;;;5055562;28;20055;-73
2022/12/09 07:11:39;;;;;;;31.67;22.98;;;1.60;99.90;;;;;;5062843;28;20040;-76
2022/12/09 07:14:05;;;;;;;31.58;23.75;;;1.50;99.90;;;;;;5089792;28;20499;-73
2022/12/09 07:16:30;;;;;;;34.42;25.50;;;1.50;99.90;;;;;;5049187;28;20068;-73
2022/12/09 07:18:56;;;;;;;31.67;23.77;;;1.40;99.90;;;;;;5051685;28;20476;-74
2022/12/09 07:21:23;;;;;;;35.05;23.98;;;1.40;99.90;;;;;;5060434;28;20081;-72
2022/12/09 07:23:49;;;;;;;35.97;23.67;;;1.30;99.90;;;;;;5054297;28;20048;-74
2022/12/09 07:26:15;;;;;;;33.00;25.27;;;1.30;99.90;;;;;;5085728;28;20044;-73
2022/12/09 07:28:42;;;;;;;35.03;25.33;;;1.30;99.90;;;;;;5091974;28;20044;-73
2022/12/09 07:31:21;;;;;;;34.95;25.52;;;1.30;99.90;;;;;;5054372;28;20056;-73
2022/12/09 07:33:47;;;;;;;34.75;25.63;;;1.20;99.90;;;;;;5083883;27;20040;-73
2022/12/09 07:36:13;;;;;;;44.13;29.60;;;1.20;99.90;;;;;;5084755;28;20036;-73
2022/12/09 07:38:39;;;;;;;37.70;25.88;;;1.30;99.90;;;;;;5065941;28;20041;-73
2022/12/09 07:41:16;;;;;;;35.83;25.73;;;1.30;99.90;;;;;;5055689;28;20052;-73
2022/12/09 07:43:43;;;;;;;37.40;27.40;;;1.40;99.90;;;;;;5056901;28;20041;-73
2022/12/09 07:46:11;;;;;;;42.60;28.58;;;1.40;99.90;;;;;;5054638;28;20531;-73
2022/12/09 07:48:36;;;;;;;42.88;28.05;;;1.40;99.90;;;;;;5058744;28;20045;-73
2022/12/09 07:51:04;;;;;;;46.22;30.45;;;1.50;99.90;;;;;;5050540;28;20056;-73
2022/12/09 07:53:30;;;;;;;48.35;32.05;;;1.60;99.90;;;;;;5058942;28;20497;-73
2022/12/09 07:56:01;;;;;;;50.77;32.80;;;1.60;99.90;;;;;;5060140;28;20148;-74
2022/12/09 07:58:28;;;;;;;55.75;36.65;;;1.70;99.90;;;;;;5062269;28;20056;-74
2022/12/09 08:00:54;;;;;;;63.45;39.95;;;1.80;99.90;;;;;;5049484;28;20124;-73
2022/12/09 08:03:19;;;;;;;67.38;41.83;;;1.80;99.90;;;;;;5088985;28;20043;-74
2022/12/09 08:05:47;;;;;;;66.10;42.00;;;1.90;99.90;;;;;;5051179;28;20407;-74
2022/12/09 08:08:13;;;;;;;74.25;42.90;;;2.00;99.90;;;;;;5055042;28;20045;-74
2022/12/09 08:10:39;;;;;;;74.20;43.20;;;2.00;99.90;;;;;;5097828;28;20056;-74
2022/12/09 08:13:05;;;;;;;70.63;41.45;;;2.10;99.90;;;;;;5069910;28;20079;-74
2022/12/09 08:15:31;;;;;;;65.20;38.42;;;2.10;99.90;;;;;;5055330;28;20076;-73
2022/12/09 08:17:56;;;;;;;64.80;38.97;;;2.20;99.90;;;;;;5048330;28;20045;-73
2022/12/09 08:20:22;;;;;;;62.92;38.85;;;2.20;99.90;;;;;;5064264;28;20090;-74
2022/12/09 08:22:48;;;;;;;61.95;38.95;;;2.20;99.90;;;;;;5057312;28;20102;-74
2022/12/09 08:25:14;;;;;;;60.45;38.33;;;2.20;99.90;;;;;;5059136;28;20114;-83
2022/12/09 08:27:40;;;;;;;60.35;38.63;;;2.30;99.90;;;;;;5059441;28;20080;-78
2022/12/09 08:30:06;;;;;;;65.57;40.33;;;2.30;99.90;;;;;;5054179;28;20095;-80
2022/12/09 08:32:32;;;;;;;67.25;40.53;;;2.30;99.90;;;;;;5065036;28;20090;-76
2022/12/09 08:34:58;;;;;;;57.60;39.20;;;2.30;99.90;;;;;;5061313;28;20045;-78
2022/12/09 08:37:23;;;;;;;63.13;40.25;;;2.40;99.90;;;;;;5080266;28;20044;-74
2022/12/09 08:39:49;;;;;;;69.80;39.20;;;2.40;99.90;;;;;;5075717;28;20131;-73
2022/12/09 08:42:14;;;;;;;63.72;38.90;;;2.40;99.90;;;;;;5064956;28;20143;-75
2022/12/09 08:44:40;;;;;;;62.05;38.45;;;2.40;99.90;;;;;;5067468;28;20119;-73
2022/12/09 08:47:06;;;;;;;62.60;39.17;;;2.40;99.90;;;;;;5056715;28;20041;-74
2022/12/09 08:49:32;;;;;;;73.88;42.60;;;2.40;99.90;;;;;;5050927;28;20041;-74
2022/12/09 08:51:57;;;;;;;79.70;43.72;;;2.50;99.90;;;;;;5063526;28;20094;-73
2022/12/09 08:54:23;;;;;;;79.07;44.17;;;2.50;99.90;;;;;;5059271;28;20086;-74
2022/12/09 08:56:51;;;;;;;82.05;43.55;;;2.50;99.90;;;;;;5053900;28;20132;-80
2022/12/09 08:59:17;;;;;;;82.85;45.20;;;2.50;99.90;;;;;;5058345;28;20883;-78
2022/12/09 09:01:43;;;;;;;97.75;47.67;;;2.50;99.90;;;;;;5080443;28;20037;-80
2022/12/09 09:04:12;;;;;;;109.13;51.70;;;2.50;99.90;;;;;;5059528;28;20498;-76
2022/12/09 09:06:40;;;;;;;110.18;51.00;;;2.60;99.90;;;;;;5049140;28;20033;-78
2022/12/09 09:09:06;;;;;;;;;;;2.60;99.90;;;;;;5052911;28;20242;-76
2022/12/09 09:11:32;;;;;;;97.45;45.05;;;2.50;99.90;;;;;;5056881;28;20010;-76
2022/12/09 09:13:58;;;;;;;94.63;47.95;;;2.50;99.90;;;;;;5066404;28;20064;-73
2022/12/09 09:16:25;;;;;;;101.93;51.72;;;2.60;99.90;;;;;;5071340;28;20068;-76
2022/12/09 09:18:52;;;;;;;95.43;51.03;;;2.60;99.90;;;;;;5064196;28;20052;-77
2022/12/09 09:21:20;;;;;;;95.70;49.70;;;2.60;99.90;;;;;;5066843;28;20068;-73
2022/12/09 09:23:46;;;;;;;92.07;48.72;;;2.60;99.90;;;;;;5074023;28;20108;-75
2022/12/09 09:26:24;;;;;;;84.53;45.17;;;2.60;99.90;;;;;;5056067;28;20146;-72
2022/12/09 09:28:50;;;;;;;79.07;44.33;;;2.70;99.90;;;;;;5058726;28;20495;-73
2022/12/09 09:31:18;;;;;;;77.07;43.70;;;2.70;99.90;;;;;;5065439;28;20312;-73
2022/12/09 09:33:44;;;;;;;73.05;42.65;;;2.70;99.90;;;;;;5068476;28;20400;-75
2022/12/09 09:36:19;;;;;;;73.45;42.75;;;2.80;99.90;;;;;;5098317;28;20044;-78
2022/12/09 09:38:46;;;;;;;73.13;41.78;;;2.80;99.90;;;;;;5067820;28;20028;-74
2022/12/09 09:41:37;;;;;;;71.32;42.28;;;2.80;99.90;;;;;;5068307;28;20123;-75
2022/12/09 09:44:10;;;;;;;68.38;42.40;;;2.80;99.90;;;;;;5067906;28;20036;-74
2022/12/09 09:46:43;;;;;;;70.10;40.53;;;2.80;99.90;;;;;;5062119;28;20053;-74
2022/12/09 09:49:15;;;;;;;72.78;43.63;;;2.90;99.90;;;;;;5069870;28;20080;-74
2022/12/09 09:51:41;;;;;;;77.47;43.03;;;3.00;99.90;;;;;;5065245;28;20032;-75
2022/12/09 09:54:11;;;;;;;69.78;43.92;;;3.00;99.90;;;;;;5061784;28;20052;-74
2022/12/09 09:56:44;;;;;;;75.22;45.13;;;3.00;99.90;;;;;;5066881;28;20064;-79
2022/12/09 09:59:16;;;;;;;82.35;48.67;;;3.00;99.90;;;;;;5068172;28;20096;-77
2022/12/09 10:01:52;;;;;;;76.90;46.78;;;3.00;99.90;;;;;;5067128;28;20082;-77
2022/12/09 10:04:29;;;;;;;84.68;49.75;;;3.00;99.90;;;;;;5069660;28;20097;-82
2022/12/09 10:06:54;;;;;;;73.85;45.63;;;3.00;99.90;;;;;;5068712;28;20052;-75
2022/12/09 10:09:35;;;;;;;72.93;45.53;;;2.90;99.90;;;;;;5065559;28;20044;-81
2022/12/09 10:12:29;;;;;;;78.22;46.60;;;3.00;99.90;;;;;;5065437;28;20055;-75
2022/12/09 10:15:18;;;;;;;73.25;45.65;;;3.00;99.90;;;;;;5041980;28;20103;-87
2022/12/09 10:18:15;;;;;;;78.28;48.30;;;3.00;99.90;;;;;;5060950;28;20037;-75
2022/12/09 10:20:42;;;;;;;69.80;44.05;;;3.00;99.90;;;;;;5065900;28;20083;-72
2022/12/09 10:23:15;;;;;;;71.45;43.67;;;2.90;99.90;;;;;;5066337;28;20040;-79
2022/12/09 10:25:46;;;;;;;73.65;45.53;;;2.90;99.90;;;;;;5096598;28;20036;-76
2022/12/09 10:28:38;;;;;;;78.47;47.97;;;2.90;99.90;;;;;;5069702;28;20051;-82
2022/12/09 10:31:04;;;;;;;60.47;38.40;;;3.00;99.90;;;;;;5067821;28;20449;-89
2022/12/09 10:33:34;;;;;;;58.13;37.30;;;3.00;99.90;;;;;;5066773;28;20033;-85
2022/12/09 10:36:00;;;;;;;52.38;34.35;;;3.00;99.90;;;;;;5078493;28;20070;-76
2022/12/09 10:38:28;;;;;;;54.60;35.05;;;3.00;99.90;;;;;;5069779;28;20049;-76
2022/12/09 10:41:06;;;;;;;56.90;35.92;;;3.00;99.90;;;;;;5057973;28;20050;-77
2022/12/09 10:43:40;;;;;;;52.97;35.38;;;3.00;99.90;;;;;;5064858;28;20051;-78
2022/12/09 10:46:16;;;;;;;53.72;35.40;;;3.10;99.90;;;;;;5068986;28;20082;-74
2022/12/09 10:48:45;;;;;;;53.08;35.83;;;3.20;99.90;;;;;;5065560;28;20036;-74
2022/12/09 10:51:19;;;;;;;54.97;37.10;;;3.20;99.90;;;;;;5068473;28;20044;-71
2022/12/09 10:53:53;;;;;;;92.97;41.60;;;3.20;99.90;;;;;;5066840;28;20052;-73
2022/12/09 10:56:24;;;;;;;60.78;40.72;;;3.20;99.90;;;;;;5069417;28;20132;-75
2022/12/09 10:59:21;;;;;;;62.58;41.75;;;3.30;99.90;;;;;;5063876;28;20079;-80
2022/12/09 11:01:51;;;;;;;59.38;38.47;;;3.30;99.90;;;;;;5066931;28;20056;-79
2022/12/09 11:04:34;;;;;;;59.83;37.50;;;3.30;99.90;;;;;;5060761;28;20040;-75
2022/12/09 11:07:02;;;;;;;59.80;40.38;;;3.30;99.90;;;;;;5063291;28;20056;-73
2022/12/09 11:09:31;;;;;;;56.78;38.78;;;3.40;99.90;;;;;;5071539;28;20441;-74
2022/12/09 11:11:58;;;;;;;61.03;42.53;;;3.40;99.90;;;;;;5067046;28;20048;-74
2022/12/09 11:14:28;;;;;;;58.47;40.53;;;3.40;99.90;;;;;;5064564;28;20072;-76
2022/12/09 11:17:09;;;;;;;114.70;79.40;;;3.40;99.90;;;;;;5054701;28;20049;-74
2022/12/09 11:19:36;;;;;;;62.30;42.03;;;3.50;99.90;;;;;;5062097;28;20067;-75
2022/12/09 11:22:21;;;;;;;56.15;36.67;;;3.40;99.90;;;;;;5072428;28;20045;-73
2022/12/09 11:24:52;;;;;;;57.72;40.20;;;3.50;99.90;;;;;;5063262;28;20056;-75
2022/12/09 11:27:29;;;;;;;56.03;38.38;;;3.50;99.90;;;;;;5071764;28;20044;-74
2022/12/09 11:30:06;;;;;;;;;;;3.50;99.90;;;;;;5066315;28;20056;-77
2022/12/09 11:32:33;;;;;;;50.63;35.30;;;3.40;99.90;;;;;;5060674;28;20271;-74
2022/12/09 11:34:59;;;;;;;51.08;35.67;;;3.50;99.90;;;;;;5060841;28;20690;-76
2022/12/09 11:37:34;;;;;;;53.92;35.95;;;3.50;99.90;;;;;;5059897;28;20046;-74
2022/12/09 11:40:00;;;;;;;48.33;32.75;;;3.60;99.90;;;;;;5063276;28;20924;-74
2022/12/09 11:42:28;;;;;;;47.47;33.20;;;3.60;99.90;;;;;;5075035;28;20044;-75
2022/12/09 11:45:05;;;;;;;43.08;30.58;;;3.60;99.90;;;;;;5062548;28;20045;-75
2022/12/09 11:47:41;;;;;;;42.95;29.30;;;3.60;99.90;;;;;;5064316;28;20033;-76
2022/12/09 11:50:16;;;;;;;44.15;30.98;;;3.60;99.90;;;;;;5065301;28;20052;-77
2022/12/09 11:52:42;;;;;;;43.92;31.02;;;3.70;99.90;;;;;;5062625;28;20123;-69
2022/12/09 11:55:23;;;;;;;45.00;31.30;;;3.70;99.90;;;;;;5064964;28;20041;-72
2022/12/09 11:58:03;;;;;;;47.40;32.63;;;3.70;99.90;;;;;;5097648;28;20072;-71
2022/12/09 12:00:59;;;;;;;44.83;30.17;;;3.80;99.90;;;;;;5098143;28;20136;-72
2022/12/09 12:03:33;;;;;;;41.03;29.33;;;3.80;99.90;;;;;;5062339;28;20066;-73
2022/12/09 12:06:02;;;;;;;44.95;32.70;;;3.80;99.90;;;;;;5061295;28;20141;-70
2022/12/09 12:08:45;;;;;;;44.25;31.55;;;3.80;99.90;;;;;;5068953;28;20043;-70
2022/12/09 12:11:15;;;;;;;45.75;31.70;;;3.90;99.90;;;;;;5062596;28;20053;-70
2022/12/09 12:13:47;;;;;;;42.72;30.92;;;3.80;99.90;;;;;;5064892;28;20048;-70
2022/12/09 12:16:20;;;;;;;45.85;30.73;;;3.80;99.90;;;;;;5065678;28;20085;-71
2022/12/09 12:19:04;;;;;;;43.05;30.85;;;3.80;99.90;;;;;;5093786;28;20174;-71
2022/12/09 12:22:04;;;;;;;43.65;29.80;;;3.80;99.90;;;;;;5064208;28;20051;-71
2022/12/09 12:24:51;;;;;;;44.67;29.73;;;3.70;99.90;;;;;;5082077;28;20079;-71
2022/12/09 12:27:32;;;;;;;;;;;3.80;99.90;;;;;;5063596;28;20058;-71
2022/12/09 12:30:00;;;;;;;41.97;28.55;;;3.70;99.90;;;;;;5065088;28;19927;-71
2022/12/09 12:32:38;;;;;;;38.13;25.30;;;3.70;99.90;;;;;;5064143;28;20052;-71
2022/12/09 12:35:13;;;;;;;38.45;25.98;;;3.80;99.90;;;;;;5064670;28;20032;-70
2022/12/09 12:37:46;;;;;;;36.75;24.48;;;3.80;99.90;;;;;;5063029;28;21725;-76
2022/12/09 12:40:34;;;;;;;33.17;23.45;;;3.80;99.90;;;;;;5069250;28;20040;-73
2022/12/09 12:46:30;;;;;;;38.33;28.55;;;3.90;99.90;;;;;;5059734;28;20045;-71
2022/12/09 12:49:02;;;;;;;74.55;48.25;;;3.80;99.90;;;;;;5059814;28;20509;-74
2022/12/09 12:51:56;;;;;;;117.82;75.72;;;3.90;99.90;;;;;;5061266;28;20040;-74
2022/12/09 12:54:36;;;;;;;89.50;62.72;;;3.90;99.90;;;;;;5090128;28;20534;-72